createdAt,value
2018-02-20T00:08:16.101Z,47
2018-02-20T00:18:16.036Z,52
2018-02-20T00:28:16.088Z,50
2018-02-20T00:38:16.081Z,45
2018-02-20T00:48:16.152Z,52
2018-02-20T00:58:16.086Z,45
2018-02-20T01:08:16.189Z,44
2018-02-20T01:18:16.096Z,46
2018-02-20T01:28:16.180Z,49
2018-02-20T01:38:16.113Z,46
2018-02-20T01:48:16.114Z,53
2018-02-20T01:58:16.137Z,48
2018-02-20T02:08:16.209Z,43
2018-02-20T02:18:16.237Z,41
2018-02-20T02:28:16.109Z,44
2018-02-20T02:38:16.202Z,48
2018-02-20T02:48:16.174Z,47
2018-02-20T02:58:16.275Z,42
2018-02-20T03:08:16.189Z,48
2018-02-20T03:18:16.123Z,46
2018-02-20T03:28:16.226Z,46
2018-02-20T03:38:16.185Z,47
2018-02-20T03:48:16.197Z,50
2018-02-20T03:58:16.098Z,44
2018-02-20T04:08:16.232Z,50
2018-02-20T04:18:16.175Z,49
2018-02-20T04:28:16.249Z,52
2018-02-20T04:38:16.216Z,55
2018-02-20T04:48:16.198Z,46
2018-02-20T04:58:16.266Z,43
2018-02-20T05:08:16.247Z,46
2018-02-20T05:18:16.285Z,49
2018-02-20T05:28:16.215Z,46
2018-02-20T05:38:16.289Z,49
2018-02-20T05:48:16.302Z,49
2018-02-20T05:58:16.373Z,48
2018-02-20T06:08:16.254Z,45
2018-02-20T06:18:16.312Z,51
2018-02-20T06:28:16.324Z,48
2018-02-20T06:38:16.316Z,55
2018-02-20T06:48:16.325Z,49
2018-02-20T06:58:16.330Z,54
2018-02-20T07:08:16.332Z,58
2018-02-20T07:18:16.366Z,59
2018-02-20T07:28:16.355Z,48
2018-02-20T07:38:16.402Z,53
2018-02-20T07:48:16.540Z,60
2018-02-20T07:58:16.460Z,50
2018-02-20T08:08:16.295Z,58
2018-02-20T08:18:16.442Z,55
2018-02-20T08:28:16.357Z,54
2018-02-20T08:38:16.395Z,56
2018-02-20T08:48:16.318Z,50
2018-02-20T08:58:16.448Z,48
2018-02-20T09:08:16.420Z,46
2018-02-20T09:18:16.467Z,49
2018-02-20T09:28:16.453Z,48
2018-02-20T09:38:16.428Z,45
2018-02-20T09:48:16.418Z,50
2018-02-20T09:58:16.356Z,50
2018-02-20T10:08:16.663Z,42
2018-02-20T10:18:16.625Z,45
2018-02-20T10:28:16.514Z,48
2018-02-20T10:38:16.470Z,46
2018-02-20T10:48:16.871Z,37
2018-02-20T10:58:16.653Z,41
2018-02-20T11:08:16.623Z,32
2018-02-20T11:18:16.596Z,41
2018-02-20T11:28:16.806Z,42
2018-02-20T11:38:16.908Z,41
2018-02-20T11:48:16.883Z,41
2018-02-20T11:58:16.859Z,44
2018-02-20T12:08:16.616Z,40
2018-02-20T12:18:16.815Z,40
2018-02-20T12:28:16.671Z,36
2018-02-20T12:38:16.690Z,33
2018-02-20T12:48:16.617Z,32
2018-02-20T12:58:16.671Z,37
2018-02-20T13:08:16.656Z,32
2018-02-20T13:18:16.790Z,33
2018-02-20T13:28:16.674Z,34
2018-02-20T13:38:20.565Z,38
2018-02-20T13:48:16.674Z,32
2018-02-20T13:58:16.719Z,31
2018-02-20T14:08:16.723Z,28
2018-02-20T14:18:16.780Z,35
2018-02-20T14:28:16.821Z,30
2018-02-20T14:38:16.664Z,30
2018-02-20T14:48:16.647Z,31
2018-02-20T14:58:16.653Z,28
2018-02-20T15:08:16.805Z,28
2018-02-20T15:18:16.699Z,33
2018-02-20T15:28:16.860Z,30
2018-02-20T15:38:16.767Z,33
2018-02-20T15:48:25.310Z,28
2018-02-20T15:58:31.826Z,32
2018-02-20T16:08:17.073Z,32
2018-02-20T16:18:16.690Z,36
2018-02-20T16:28:16.699Z,38
2018-02-20T16:38:16.829Z,39
2018-02-20T16:48:16.872Z,46
2018-02-20T16:58:16.779Z,45
2018-02-20T17:08:16.800Z,43
2018-02-20T17:18:16.798Z,48
2018-02-20T17:28:16.853Z,51
2018-02-20T17:38:17.115Z,49
2018-02-20T17:48:17.152Z,55
2018-02-20T17:58:17.033Z,55
2018-02-20T18:08:17.363Z,56
2018-02-20T18:18:16.860Z,55
2018-02-20T18:29:43.938Z,51
2018-02-20T18:39:02.750Z,53
2018-02-20T18:49:42.176Z,56
2018-02-20T18:59:38.083Z,55
2018-02-20T19:09:42.787Z,53
2018-02-20T19:19:38.125Z,55
2018-02-20T19:29:39.790Z,58
2018-02-20T19:39:35.958Z,57
2018-02-20T19:49:39.640Z,57
2018-02-20T19:59:41.793Z,61
2018-02-20T20:09:35.885Z,60
2018-02-20T20:18:44.241Z,58
2018-02-20T20:29:41.006Z,63
2018-02-20T20:38:17.005Z,58
2018-02-20T20:48:16.962Z,63
2018-02-20T20:58:17.089Z,62
2018-02-20T21:08:16.943Z,65
2018-02-20T21:18:17.149Z,66
2018-02-20T21:28:17.043Z,68
2018-02-20T21:38:17.260Z,65
2018-02-20T21:48:17.057Z,69
2018-02-20T21:58:16.923Z,62
2018-02-20T22:08:17.078Z,61
2018-02-20T22:18:16.960Z,67
2018-02-20T22:28:17.042Z,62
2018-02-20T22:38:17.043Z,65
2018-02-20T22:48:17.072Z,64
2018-02-20T22:58:17.082Z,66
2018-02-20T23:08:17.232Z,69
2018-02-20T23:18:17.025Z,70
2018-02-20T23:28:17.136Z,80
2018-02-20T23:38:17.051Z,74
2018-02-20T23:48:17.024Z,70
2018-02-20T23:58:17.159Z,71
